createdAt,value
2023-03-20T00:00:59.682Z,98111.50
2023-03-20T00:02:03.251Z,98113.22
2023-03-20T00:03:06.161Z,98105.47
2023-03-20T00:04:11.448Z,98110.59
2023-03-20T00:05:22.711Z,98112.50
2023-03-20T00:06:29.225Z,98109.78
2023-03-20T00:07:32.541Z,98118.97
2023-03-20T00:08:35.857Z,98110.91
2023-03-20T00:09:39.840Z,98117.19
2023-03-20T00:10:45.729Z,98116.22
2023-03-20T00:11:53.666Z,98114.09
2023-03-20T00:12:57.678Z,98111.28
2023-03-20T00:14:02.094Z,98102.87
2023-03-20T00:15:08.617Z,98108.88
2023-03-20T00:16:12.678Z,98100.25
2023-03-20T00:17:20.694Z,98106.34
2023-03-20T00:18:25.533Z,98105.00
2023-03-20T00:19:29.820Z,98105.16
2023-03-20T00:20:32.862Z,98108.84
2023-03-20T00:21:35.904Z,98113.28
2023-03-20T00:22:38.702Z,98116.38
2023-03-20T00:23:42.777Z,98109.97
2023-03-20T00:24:45.710Z,98112.34
2023-03-20T00:25:48.873Z,98115.19
2023-03-20T00:26:53.439Z,98114.19
2023-03-20T00:27:56.416Z,98116.66
2023-03-20T00:28:59.645Z,98112.56
2023-03-20T00:30:02.687Z,98117.84
2023-03-20T00:31:27.509Z,98116.94
2023-03-20T00:32:30.670Z,98101.41
2023-03-20T00:33:33.829Z,98104.00
2023-03-20T00:34:36.933Z,98112.28
2023-03-20T00:35:39.910Z,98109.47
2023-03-20T00:36:42.981Z,98103.53
2023-03-20T00:37:46.086Z,98098.25
2023-03-20T00:38:49.171Z,98101.00
2023-03-20T00:39:52.124Z,98112.47
2023-03-20T00:40:55.239Z,98109.47
2023-03-20T00:42:03.851Z,98112.41
2023-03-20T00:43:07.791Z,98109.88
2023-03-20T00:44:22.677Z,98118.94
2023-03-20T00:45:26.365Z,98114.62
2023-03-20T00:46:36.165Z,98118.84
2023-03-20T00:47:41.788Z,98105.38
2023-03-20T00:48:45.689Z,98114.34
2023-03-20T00:49:50.995Z,98110.09
2023-03-20T00:50:54.942Z,98115.09
2023-03-20T00:51:58.503Z,98113.97
2023-03-20T00:53:01.500Z,98107.28
2023-03-20T00:54:14.587Z,98107.84
2023-03-20T00:55:19.456Z,98103.69
2023-03-20T00:56:33.775Z,98113.06
2023-03-20T00:57:44.572Z,98117.97
2023-03-20T00:58:48.829Z,98112.81
2023-03-20T00:59:59.971Z,98120.06
2023-03-20T01:01:03.102Z,98114.59
2023-03-20T01:02:07.023Z,98117.03
2023-03-20T01:03:26.290Z,98115.34
2023-03-20T01:04:37.075Z,98114.12
2023-03-20T01:05:40.432Z,98112.59
2023-03-20T01:06:44.107Z,98122.62
2023-03-20T01:07:47.499Z,98111.16
2023-03-20T01:08:50.630Z,98118.66
2023-03-20T01:09:53.596Z,98110.94
2023-03-20T01:10:59.395Z,98108.28
2023-03-20T01:12:03.337Z,98115.00
2023-03-20T01:13:13.990Z,98111.22
2023-03-20T01:14:17.115Z,98111.44
2023-03-20T01:15:26.241Z,98116.44
2023-03-20T01:16:29.198Z,98110.22
2023-03-20T01:17:32.348Z,98110.56
2023-03-20T01:18:35.776Z,98112.72
2023-03-20T01:19:38.696Z,98104.69
2023-03-20T01:20:42.722Z,98106.69
2023-03-20T01:21:46.181Z,98108.31
2023-03-20T01:22:49.645Z,98105.97
2023-03-20T01:23:52.564Z,98104.16
2023-03-20T01:24:55.472Z,98099.09
2023-03-20T01:25:59.289Z,98095.44
2023-03-20T01:27:04.620Z,98098.28
2023-03-20T01:28:20.322Z,98097.19
2023-03-20T01:29:26.060Z,98092.25
2023-03-20T01:30:34.400Z,98092.88
2023-03-20T01:31:37.780Z,98091.19
2023-03-20T01:32:40.667Z,98089.34
2023-03-20T01:33:43.762Z,98092.25
2023-03-20T01:34:47.835Z,98085.25
2023-03-20T01:35:51.800Z,98085.31
2023-03-20T01:36:58.259Z,98088.66
2023-03-20T01:38:01.154Z,98080.31
2023-03-20T01:39:05.284Z,98081.09
2023-03-20T01:40:20.074Z,98084.31
2023-03-20T01:41:25.526Z,98090.16
2023-03-20T01:42:29.011Z,98079.50
2023-03-20T01:43:34.082Z,98074.41
2023-03-20T01:44:38.577Z,98075.41
2023-03-20T01:45:54.095Z,98078.03
2023-03-20T01:46:57.457Z,98072.31
2023-03-20T01:48:00.734Z,98076.53
2023-03-20T01:49:29.449Z,98070.81
2023-03-20T01:50:33.748Z,98083.09
2023-03-20T01:51:38.013Z,98076.84
2023-03-20T01:52:40.983Z,98081.06
2023-03-20T01:53:45.725Z,98083.53
2023-03-20T01:54:48.586Z,98090.88
2023-03-20T01:55:56.087Z,98085.56
2023-03-20T01:57:01.824Z,98088.56
2023-03-20T01:58:11.101Z,98088.00
2023-03-20T01:59:21.661Z,98087.06
2023-03-20T02:00:24.872Z,98083.41
2023-03-20T02:01:28.939Z,98081.63
2023-03-20T02:02:33.217Z,98089.53
2023-03-20T02:03:36.224Z,98083.38
2023-03-20T02:04:44.349Z,98071.38
2023-03-20T02:05:48.211Z,98065.09
2023-03-20T02:06:51.457Z,98073.22
2023-03-20T02:08:08.256Z,98075.91
2023-03-20T02:09:12.097Z,98079.94
2023-03-20T02:10:16.689Z,98083.16
2023-03-20T02:11:23.814Z,98082.84
2023-03-20T02:12:27.064Z,98080.87
2023-03-20T02:13:32.037Z,98080.47
2023-03-20T02:14:37.845Z,98083.84
2023-03-20T02:15:57.326Z,98087.78
2023-03-20T02:17:00.576Z,98082.56
2023-03-20T02:18:04.062Z,98071.63
2023-03-20T02:19:14.666Z,98085.91
2023-03-20T02:20:23.358Z,98081.44
2023-03-20T02:22:02.959Z,98073.47
2023-03-20T02:23:14.782Z,98076.38
2023-03-20T02:24:42.939Z,98083.91
2023-03-20T02:26:02.480Z,98075.06
2023-03-20T02:27:08.486Z,98073.00
2023-03-20T02:28:27.720Z,98074.38
2023-03-20T02:30:01.534Z,98064.16
2023-03-20T02:31:30.737Z,98068.38
2023-03-20T02:32:49.953Z,98068.78
2023-03-20T02:34:11.310Z,98059.63
2023-03-20T02:35:38.373Z,98067.19
2023-03-20T02:37:12.392Z,98068.13
2023-03-20T02:38:37.069Z,98059.63
2023-03-20T02:39:47.418Z,98064.50
2023-03-20T02:41:10.761Z,98058.78
2023-03-20T02:42:50.720Z,98057.78
2023-03-20T02:44:13.381Z,98055.94
2023-03-20T02:45:34.240Z,98057.56
2023-03-20T02:46:43.804Z,98060.66
2023-03-20T02:47:46.731Z,98052.59
2023-03-20T02:48:57.434Z,98047.44
2023-03-20T02:50:12.398Z,98052.47
2023-03-20T02:51:40.514Z,98048.41
2023-03-20T02:53:12.536Z,98054.31
2023-03-20T02:54:33.879Z,98046.03
2023-03-20T02:55:47.340Z,98049.44
2023-03-20T02:57:00.987Z,98051.53
2023-03-20T02:58:15.003Z,98050.00
2023-03-20T02:59:38.585Z,98048.13
2023-03-20T03:01:07.018Z,98045.50
2023-03-20T03:02:24.908Z,98048.34
2023-03-20T03:03:38.681Z,98049.72
2023-03-20T03:04:55.704Z,98051.22
2023-03-20T03:06:13.025Z,98061.38
2023-03-20T03:07:20.037Z,98060.69
2023-03-20T03:08:28.946Z,98060.28
2023-03-20T03:09:39.505Z,98056.91
2023-03-20T03:10:48.476Z,98056.09
2023-03-20T03:11:57.813Z,98052.47
2023-03-20T03:13:02.569Z,98057.75
2023-03-20T03:14:07.474Z,98054.69
2023-03-20T03:15:29.840Z,98056.87
2023-03-20T03:16:36.648Z,98060.16
2023-03-20T03:17:43.095Z,98051.06
2023-03-20T03:18:49.438Z,98052.88
2023-03-20T03:19:59.338Z,98057.78
2023-03-20T03:21:05.247Z,98055.53
2023-03-20T03:22:09.002Z,98062.38
2023-03-20T03:23:27.806Z,98063.44
2023-03-20T03:24:41.140Z,98062.47
2023-03-20T03:25:45.937Z,98062.69
2023-03-20T03:26:49.687Z,98064.53
2023-03-20T03:28:05.695Z,98067.66
2023-03-20T03:29:17.319Z,98064.31
2023-03-20T03:30:28.316Z,98061.41
2023-03-20T03:31:33.116Z,98068.19
2023-03-20T03:32:44.188Z,98063.00
2023-03-20T03:33:48.511Z,98066.13
2023-03-20T03:34:51.485Z,98068.78
2023-03-20T03:36:09.120Z,98067.75
2023-03-20T03:37:45.999Z,98066.16
2023-03-20T03:39:28.248Z,98072.69
2023-03-20T03:40:44.248Z,98072.91
2023-03-20T03:41:56.920Z,98069.75
2023-03-20T03:43:09.598Z,98075.25
2023-03-20T03:44:27.191Z,98072.22
2023-03-20T03:45:38.646Z,98073.81
2023-03-20T03:47:17.199Z,98080.09
2023-03-20T03:48:28.643Z,98086.88
2023-03-20T03:49:35.033Z,98081.88
2023-03-20T03:50:48.725Z,98081.59
2023-03-20T03:52:00.213Z,98086.31
2023-03-20T03:53:12.651Z,98086.56
2023-03-20T03:54:30.859Z,98088.37
2023-03-20T03:55:40.085Z,98092.09
2023-03-20T03:56:45.478Z,98091.91
2023-03-20T03:58:02.119Z,98092.12
2023-03-20T03:59:15.263Z,98095.25
2023-03-20T04:00:24.109Z,98098.88
2023-03-20T04:01:29.381Z,98100.16
2023-03-20T04:02:34.572Z,98103.31
2023-03-20T04:03:58.542Z,98099.88
2023-03-20T04:05:03.986Z,98095.50
2023-03-20T04:06:12.790Z,98099.16
2023-03-20T04:07:16.387Z,98098.16
2023-03-20T04:08:19.291Z,98091.38
2023-03-20T04:09:22.251Z,98093.25
2023-03-20T04:10:25.542Z,98089.09
2023-03-20T04:11:31.495Z,98090.41
2023-03-20T04:12:39.903Z,98090.13
2023-03-20T04:13:42.815Z,98095.03
2023-03-20T04:14:45.796Z,98102.31
2023-03-20T04:15:48.612Z,98101.00
2023-03-20T04:16:51.603Z,98107.75
2023-03-20T04:17:54.709Z,98096.34
2023-03-20T04:18:57.894Z,98102.59
2023-03-20T04:20:00.856Z,98100.53
2023-03-20T04:21:04.003Z,98107.31
2023-03-20T04:22:06.975Z,98097.94
2023-03-20T04:23:09.907Z,98097.69
2023-03-20T04:24:12.972Z,98105.75
2023-03-20T04:25:19.571Z,98110.72
2023-03-20T04:26:22.514Z,98101.06
2023-03-20T04:27:25.480Z,98108.38
2023-03-20T04:28:28.933Z,98109.66
2023-03-20T04:29:31.919Z,98109.91
2023-03-20T04:30:34.887Z,98105.75
2023-03-20T04:31:37.852Z,98114.88
2023-03-20T04:32:42.074Z,98112.25
2023-03-20T04:33:45.224Z,98108.38
2023-03-20T04:34:48.208Z,98112.25
2023-03-20T04:35:51.345Z,98106.00
2023-03-20T04:36:54.393Z,98107.06
2023-03-20T04:37:57.391Z,98103.41
2023-03-20T04:39:00.113Z,98112.78
2023-03-20T04:40:03.646Z,98107.84
2023-03-20T04:41:07.120Z,98110.69
2023-03-20T04:42:10.329Z,98111.72
2023-03-20T04:43:14.334Z,98112.50
2023-03-20T04:44:17.315Z,98108.63
2023-03-20T04:45:20.735Z,98102.38
2023-03-20T04:46:24.084Z,98104.19
2023-03-20T04:47:27.235Z,98108.63
2023-03-20T04:48:30.114Z,98107.59
2023-03-20T04:49:33.092Z,98102.38
2023-03-20T04:50:36.525Z,98100.31
2023-03-20T04:51:39.271Z,98102.66
2023-03-20T04:52:42.276Z,98101.84
2023-03-20T04:53:45.192Z,98103.19
2023-03-20T04:54:47.973Z,98107.06
2023-03-20T04:55:51.355Z,98104.72
2023-03-20T04:56:54.379Z,98108.09
2023-03-20T04:57:57.603Z,98103.16
2023-03-20T04:59:00.527Z,98101.34
2023-03-20T05:00:05.031Z,98102.66
2023-03-20T05:01:08.152Z,98102.41
2023-03-20T05:02:15.121Z,98098.75
2023-03-20T05:03:17.998Z,98099.00
2023-03-20T05:04:21.583Z,98106.78
2023-03-20T05:05:24.810Z,98108.38
2023-03-20T05:06:28.740Z,98100.56
2023-03-20T05:07:31.517Z,98108.34
2023-03-20T05:08:35.680Z,98106.56
2023-03-20T05:09:38.615Z,98105.50
2023-03-20T05:10:41.627Z,98107.06
2023-03-20T05:11:44.619Z,98109.94
2023-03-20T05:12:48.322Z,98105.00
2023-03-20T05:13:51.343Z,98108.09
2023-03-20T05:14:55.178Z,98110.44
2023-03-20T05:15:58.135Z,98112.78
2023-03-20T05:17:01.528Z,98113.81
2023-03-20T05:18:14.923Z,98106.81
2023-03-20T05:19:18.123Z,98116.69
2023-03-20T05:20:21.341Z,98114.06
2023-03-20T05:21:24.223Z,98117.97
2023-03-20T05:22:27.140Z,98122.66
2023-03-20T05:23:30.252Z,98116.44
2023-03-20T05:24:33.221Z,98120.59
2023-03-20T05:25:36.502Z,98120.84
2023-03-20T05:26:39.925Z,98119.25
2023-03-20T05:27:45.679Z,98118.72
2023-03-20T05:28:48.601Z,98120.31
2023-03-20T05:29:51.753Z,98123.69
2023-03-20T05:30:55.110Z,98120.84
2023-03-20T05:31:57.957Z,98123.69
2023-03-20T05:33:01.053Z,98111.47
2023-03-20T05:34:04.185Z,98125.47
2023-03-20T05:35:07.647Z,98121.34
2023-03-20T05:36:11.043Z,98122.09
2023-03-20T05:37:14.520Z,98120.03
2023-03-20T05:38:17.481Z,98118.69
2023-03-20T05:39:20.566Z,98121.00
2023-03-20T05:40:25.919Z,98124.66
2023-03-20T05:41:28.916Z,98125.94
2023-03-20T05:42:32.295Z,98122.28
2023-03-20T05:43:35.385Z,98129.84
2023-03-20T05:44:38.304Z,98128.25
2023-03-20T05:45:43.156Z,98129.56
2023-03-20T05:46:46.037Z,98130.81
2023-03-20T05:47:49.377Z,98132.31
2023-03-20T05:48:52.377Z,98129.50
2023-03-20T05:49:55.104Z,98131.88
2023-03-20T05:50:58.150Z,98125.41
2023-03-20T05:52:01.188Z,98129.31
2023-03-20T05:53:04.105Z,98139.69
2023-03-20T05:54:07.243Z,98134.72
2023-03-20T05:55:10.226Z,98134.41
2023-03-20T05:56:13.276Z,98142.75
2023-03-20T05:57:16.322Z,98129.72
2023-03-20T05:58:19.342Z,98140.87
2023-03-20T05:59:22.305Z,98129.78
2023-03-20T06:00:25.428Z,98144.09
2023-03-20T06:01:28.644Z,98139.94
2023-03-20T06:02:31.498Z,98142.25
2023-03-20T06:03:34.651Z,98151.09
2023-03-20T06:04:37.605Z,98154.97
2023-03-20T06:05:40.564Z,98153.62
2023-03-20T06:06:44.114Z,98155.56
2023-03-20T06:07:46.938Z,98156.09
2023-03-20T06:08:49.821Z,98152.72
2023-03-20T06:09:52.654Z,98165.22
2023-03-20T06:10:55.522Z,98161.75
2023-03-20T06:11:58.405Z,98161.22
2023-03-20T06:13:01.682Z,98165.63
2023-03-20T06:14:04.604Z,98163.97
2023-03-20T06:15:08.198Z,98166.25
2023-03-20T06:16:11.237Z,98162.56
2023-03-20T06:17:14.183Z,98160.16
2023-03-20T06:18:17.222Z,98156.47
2023-03-20T06:19:22.124Z,98162.72
2023-03-20T06:20:25.868Z,98154.59
2023-03-20T06:21:28.760Z,98163.91
2023-03-20T06:22:32.620Z,98161.06
2023-03-20T06:23:36.543Z,98159.41
2023-03-20T06:24:39.523Z,98161.38
2023-03-20T06:25:43.283Z,98157.41
2023-03-20T06:26:46.650Z,98156.03
2023-03-20T06:27:50.426Z,98156.78
2023-03-20T06:28:53.305Z,98155.66
2023-03-20T06:29:56.360Z,98162.09
2023-03-20T06:30:59.322Z,98156.31
2023-03-20T06:32:03.460Z,98155.91
2023-03-20T06:33:10.256Z,98160.78
2023-03-20T06:34:13.080Z,98163.34
2023-03-20T06:35:16.389Z,98163.00
2023-03-20T06:36:19.246Z,98163.63
2023-03-20T06:37:22.731Z,98168.78
2023-03-20T06:38:25.775Z,98175.09
2023-03-20T06:39:28.887Z,98165.38
2023-03-20T06:40:32.062Z,98160.66
2023-03-20T06:41:35.311Z,98167.53
2023-03-20T06:42:38.225Z,98164.00
2023-03-20T06:43:43.198Z,98172.34
2023-03-20T06:44:46.100Z,98168.00
2023-03-20T06:45:49.134Z,98164.84
2023-03-20T06:46:52.316Z,98171.69
2023-03-20T06:47:56.173Z,98170.00
2023-03-20T06:48:59.912Z,98169.50
2023-03-20T06:50:02.981Z,98170.91
2023-03-20T06:51:06.591Z,98168.78
2023-03-20T06:52:16.855Z,98165.16
2023-03-20T06:53:20.200Z,98170.00
2023-03-20T06:54:23.212Z,98165.53
2023-03-20T06:55:25.977Z,98170.13
2023-03-20T06:56:28.771Z,98175.31
2023-03-20T06:57:31.756Z,98175.50
2023-03-20T06:58:37.890Z,98174.81
2023-03-20T06:59:41.878Z,98170.25
2023-03-20T07:00:45.232Z,98164.94
2023-03-20T07:01:48.161Z,98174.38
2023-03-20T07:02:51.350Z,98171.81
2023-03-20T07:03:55.146Z,98174.25
2023-03-20T07:04:58.306Z,98175.28
2023-03-20T07:06:01.230Z,98174.97
2023-03-20T07:07:04.703Z,98174.44
2023-03-20T07:08:07.984Z,98169.66
2023-03-20T07:09:11.278Z,98165.75
2023-03-20T07:10:13.957Z,98172.66
2023-03-20T07:11:16.763Z,98177.91
2023-03-20T07:12:26.693Z,98179.47
2023-03-20T07:13:29.877Z,98173.44
2023-03-20T07:14:33.300Z,98175.91
2023-03-20T07:15:37.014Z,98177.94
2023-03-20T07:16:40.083Z,98174.34
2023-03-20T07:17:42.964Z,98178.56
2023-03-20T07:18:45.921Z,98175.94
2023-03-20T07:19:49.235Z,98179.59
2023-03-20T07:20:53.435Z,98179.94
2023-03-20T07:22:03.653Z,98176.59
2023-03-20T07:23:06.552Z,98181.44
2023-03-20T07:24:09.379Z,98173.63
2023-03-20T07:25:12.237Z,98178.28
2023-03-20T07:26:15.176Z,98175.69
2023-03-20T07:27:18.588Z,98167.69
2023-03-20T07:28:21.619Z,98174.28
2023-03-20T07:29:24.640Z,98182.00
2023-03-20T07:30:28.090Z,98175.69
2023-03-20T07:31:31.493Z,98175.34
2023-03-20T07:32:37.557Z,98175.41
2023-03-20T07:33:40.959Z,98175.28
2023-03-20T07:34:44.418Z,98173.75
2023-03-20T07:35:47.519Z,98172.69
2023-03-20T07:36:50.569Z,98167.88
2023-03-20T07:37:53.393Z,98171.94
2023-03-20T07:38:56.243Z,98174.13
2023-03-20T07:39:59.169Z,98176.41
2023-03-20T07:41:02.067Z,98175.75
2023-03-20T07:42:05.501Z,98179.66
2023-03-20T07:43:08.675Z,98179.06
2023-03-20T07:44:11.494Z,98180.00
2023-03-20T07:45:15.295Z,98181.66
2023-03-20T07:46:18.412Z,98184.12
2023-03-20T07:47:21.946Z,98174.84
2023-03-20T07:48:24.847Z,98180.03
2023-03-20T07:49:27.673Z,98184.97
2023-03-20T07:50:30.721Z,98177.72
2023-03-20T07:51:33.910Z,98186.66
2023-03-20T07:52:37.498Z,98189.50
2023-03-20T07:53:40.536Z,98186.34
2023-03-20T07:54:43.650Z,98185.88
2023-03-20T07:55:46.725Z,98185.78
2023-03-20T07:56:51.288Z,98179.97
2023-03-20T07:57:54.170Z,98183.16
2023-03-20T07:58:57.032Z,98185.06
2023-03-20T08:00:00.052Z,98189.03
2023-03-20T08:01:03.825Z,98191.28
2023-03-20T08:02:07.179Z,98192.31
2023-03-20T08:03:11.190Z,98192.41
2023-03-20T08:04:14.588Z,98193.63
2023-03-20T08:05:18.090Z,98199.94
2023-03-20T08:06:21.304Z,98195.37
2023-03-20T08:07:24.020Z,98187.56
2023-03-20T08:08:26.909Z,98197.53
2023-03-20T08:09:29.891Z,98196.47
2023-03-20T08:10:32.965Z,98197.25
2023-03-20T08:11:35.928Z,98195.25
2023-03-20T08:12:39.213Z,98195.50
2023-03-20T08:13:42.376Z,98196.31
2023-03-20T08:14:45.390Z,98202.66
2023-03-20T08:15:48.419Z,98207.47
2023-03-20T08:17:06.255Z,98199.44
2023-03-20T08:18:14.397Z,98199.75
2023-03-20T08:19:17.573Z,98200.06
2023-03-20T08:20:20.595Z,98197.63
2023-03-20T08:21:23.840Z,98202.28
2023-03-20T08:22:26.880Z,98197.19
2023-03-20T08:23:29.718Z,98197.63
2023-03-20T08:24:32.484Z,98204.91
2023-03-20T08:25:35.527Z,98195.31
2023-03-20T08:26:38.994Z,98200.53
2023-03-20T08:27:42.347Z,98204.22
2023-03-20T08:28:47.889Z,98197.59
2023-03-20T08:29:52.025Z,98202.56
2023-03-20T08:30:55.064Z,98196.78
2023-03-20T08:31:58.127Z,98198.47
2023-03-20T08:33:01.052Z,98200.13
2023-03-20T08:34:03.916Z,98204.16
2023-03-20T08:35:16.295Z,98196.13
2023-03-20T08:36:25.994Z,98206.62
2023-03-20T08:37:29.116Z,98202.78
2023-03-20T08:38:32.046Z,98204.47
2023-03-20T08:39:36.015Z,98203.06
2023-03-20T08:40:42.410Z,98206.81
2023-03-20T08:41:45.997Z,98215.13
2023-03-20T08:42:49.621Z,98209.28
2023-03-20T08:43:52.483Z,98215.69
2023-03-20T08:44:55.263Z,98215.81
2023-03-20T08:45:58.220Z,98212.69
2023-03-20T08:47:01.106Z,98213.97
2023-03-20T08:48:06.835Z,98221.81
2023-03-20T08:49:09.783Z,98224.13
2023-03-20T08:50:13.168Z,98215.94
2023-03-20T08:51:16.422Z,98213.16
2023-03-20T08:52:19.724Z,98220.50
2023-03-20T08:53:22.749Z,98216.53
2023-03-20T08:54:25.676Z,98221.75
2023-03-20T08:55:28.548Z,98212.94
2023-03-20T08:56:31.373Z,98215.22
2023-03-20T08:57:34.228Z,98220.69
2023-03-20T08:58:37.330Z,98217.00
2023-03-20T08:59:40.252Z,98220.34
2023-03-20T09:00:43.777Z,98220.03
2023-03-20T09:01:50.069Z,98227.16
2023-03-20T09:02:54.028Z,98221.66
2023-03-20T09:03:56.874Z,98228.25
2023-03-20T09:04:59.726Z,98226.75
2023-03-20T09:06:05.150Z,98226.19
2023-03-20T09:07:08.732Z,98220.06
2023-03-20T09:08:11.662Z,98227.34
2023-03-20T09:09:16.112Z,98225.87
2023-03-20T09:10:19.424Z,98226.88
2023-03-20T09:11:22.571Z,98227.97
2023-03-20T09:12:25.611Z,98232.75
2023-03-20T09:13:28.767Z,98228.09
2023-03-20T09:14:31.730Z,98235.16
2023-03-20T09:15:36.157Z,98233.31
2023-03-20T09:16:39.633Z,98231.63
2023-03-20T09:17:42.549Z,98220.62
2023-03-20T09:18:45.515Z,98226.88
2023-03-20T09:19:48.360Z,98225.56
2023-03-20T09:20:52.230Z,98233.03
2023-03-20T09:21:55.199Z,98227.41
2023-03-20T09:22:58.221Z,98222.09
2023-03-20T09:24:01.039Z,98223.78
2023-03-20T09:25:04.093Z,98221.09
2023-03-20T09:26:07.224Z,98226.88
2023-03-20T09:27:10.162Z,98223.34
2023-03-20T09:28:13.163Z,98223.44
2023-03-20T09:29:16.339Z,98217.31
2023-03-20T09:30:19.375Z,98218.31
2023-03-20T09:31:23.447Z,98218.16
2023-03-20T09:32:26.554Z,98220.66
2023-03-20T09:33:29.680Z,98217.22
2023-03-20T09:34:32.667Z,98213.00
2023-03-20T09:35:35.642Z,98218.59
2023-03-20T09:36:38.534Z,98214.38
2023-03-20T09:37:41.824Z,98217.34
2023-03-20T09:38:44.663Z,98215.75
2023-03-20T09:39:47.764Z,98214.03
2023-03-20T09:40:57.864Z,98220.47
2023-03-20T09:42:22.755Z,98213.88
2023-03-20T09:43:33.286Z,98222.50
2023-03-20T09:44:54.398Z,98214.38
2023-03-20T09:46:09.249Z,98216.06
2023-03-20T09:47:24.381Z,98213.69
2023-03-20T09:48:48.104Z,98219.34
2023-03-20T09:49:59.716Z,98222.09
2023-03-20T09:51:22.905Z,98221.28
2023-03-20T09:52:33.194Z,98216.94
2023-03-20T09:53:43.377Z,98226.28
2023-03-20T09:54:54.368Z,98228.69
2023-03-20T09:55:58.189Z,98225.50
2023-03-20T09:57:02.906Z,98230.38
2023-03-20T09:58:13.040Z,98225.63
2023-03-20T09:59:18.291Z,98227.78
2023-03-20T10:00:25.264Z,98231.06
2023-03-20T10:01:34.165Z,98222.34
2023-03-20T10:02:49.992Z,98227.84
2023-03-20T10:04:01.952Z,98230.09
2023-03-20T10:05:15.148Z,98228.00
2023-03-20T10:06:18.692Z,98226.22
2023-03-20T10:07:22.930Z,98226.03
2023-03-20T10:08:34.108Z,98229.56
2023-03-20T10:09:37.504Z,98229.44
2023-03-20T10:10:51.932Z,98228.88
2023-03-20T10:12:21.063Z,98229.09
2023-03-20T10:13:42.589Z,98225.78
2023-03-20T10:14:57.254Z,98217.47
2023-03-20T10:16:48.757Z,98215.97
2023-03-20T10:18:10.918Z,98226.19
2023-03-20T10:19:28.996Z,98221.69
2023-03-20T10:20:42.259Z,98229.38
2023-03-20T10:21:48.863Z,98225.59
2023-03-20T10:23:14.396Z,98230.84
2023-03-20T10:24:21.445Z,98225.03
2023-03-20T10:25:38.054Z,98224.47
2023-03-20T10:26:41.642Z,98225.31
2023-03-20T10:27:52.371Z,98223.91
2023-03-20T10:29:05.955Z,98225.09
2023-03-20T10:30:53.085Z,98223.06
2023-03-20T10:32:07.878Z,98223.97
2023-03-20T10:33:13.549Z,98220.88
2023-03-20T10:34:53.676Z,98217.91
2023-03-20T10:36:16.861Z,98220.38
2023-03-20T10:37:44.281Z,98223.72
2023-03-20T10:39:17.805Z,98213.62
2023-03-20T10:40:32.217Z,98215.94
2023-03-20T10:41:42.607Z,98216.97
2023-03-20T10:42:48.202Z,98208.97
2023-03-20T10:43:53.029Z,98208.31
2023-03-20T10:45:07.895Z,98208.66
2023-03-20T10:46:26.548Z,98211.16
2023-03-20T10:47:31.828Z,98211.47
2023-03-20T10:48:43.658Z,98212.59
2023-03-20T10:50:14.965Z,98209.84
2023-03-20T10:51:20.933Z,98205.75
2023-03-20T10:52:32.586Z,98213.03
2023-03-20T10:53:57.186Z,98205.22
2023-03-20T10:55:05.822Z,98209.78
2023-03-20T10:56:17.256Z,98207.63
2023-03-20T10:57:32.319Z,98204.22
2023-03-20T10:58:42.184Z,98203.38
2023-03-20T10:59:50.044Z,98208.31
2023-03-20T11:00:56.038Z,98205.75
2023-03-20T11:01:59.389Z,98199.31
2023-03-20T11:03:02.405Z,98202.72
2023-03-20T11:04:06.052Z,98196.72
2023-03-20T11:05:21.712Z,98201.59
2023-03-20T11:06:32.434Z,98198.19
2023-03-20T11:07:36.243Z,98195.81
2023-03-20T11:08:48.731Z,98195.41
2023-03-20T11:10:12.654Z,98189.16
2023-03-20T11:11:26.798Z,98187.94
2023-03-20T11:12:33.700Z,98195.91
2023-03-20T11:13:40.978Z,98193.91
2023-03-20T11:14:44.065Z,98189.72
2023-03-20T11:15:47.185Z,98190.19
2023-03-20T11:16:52.931Z,98190.59
2023-03-20T11:18:08.107Z,98183.53
2023-03-20T11:19:12.559Z,98194.28
2023-03-20T11:20:15.709Z,98193.16
2023-03-20T11:21:22.892Z,98176.78
2023-03-20T11:22:29.592Z,98188.47
2023-03-20T11:23:36.038Z,98187.19
2023-03-20T11:25:11.851Z,98185.63
2023-03-20T11:26:20.974Z,98179.66
2023-03-20T11:27:28.872Z,98188.53
2023-03-20T11:28:36.706Z,98183.84
2023-03-20T11:29:43.178Z,98183.09
2023-03-20T11:31:03.985Z,98181.56
2023-03-20T11:32:54.541Z,98187.19
2023-03-20T11:34:23.012Z,98181.88
2023-03-20T11:35:26.004Z,98172.72
2023-03-20T11:36:31.091Z,98171.94
2023-03-20T11:37:36.189Z,98178.03
2023-03-20T11:38:46.243Z,98174.63
2023-03-20T11:40:01.363Z,98176.28
2023-03-20T11:41:05.651Z,98180.25
2023-03-20T11:42:24.902Z,98177.84
2023-03-20T11:43:28.917Z,98181.00
2023-03-20T11:44:34.393Z,98174.78
2023-03-20T11:45:43.124Z,98176.28
2023-03-20T11:46:55.025Z,98175.12
2023-03-20T11:47:58.237Z,98181.19
2023-03-20T11:49:19.939Z,98173.56
2023-03-20T11:50:26.319Z,98176.06
2023-03-20T11:51:29.420Z,98181.88
2023-03-20T11:52:35.826Z,98180.00
2023-03-20T11:54:15.527Z,98174.31
2023-03-20T11:55:33.765Z,98174.00
2023-03-20T11:56:37.350Z,98179.03
2023-03-20T11:57:42.733Z,98174.19
2023-03-20T11:59:12.063Z,98172.59
2023-03-20T12:00:26.312Z,98173.50
2023-03-20T12:01:38.296Z,98172.56
2023-03-20T12:02:42.195Z,98172.28
2023-03-20T12:03:56.093Z,98170.31
2023-03-20T12:05:02.595Z,98168.38
2023-03-20T12:06:14.783Z,98162.47
2023-03-20T12:07:32.772Z,98166.91
2023-03-20T12:08:40.085Z,98172.22
2023-03-20T12:10:05.605Z,98175.38
2023-03-20T12:11:29.501Z,98174.16
2023-03-20T12:13:30.952Z,98172.94
2023-03-20T12:14:47.507Z,98166.66
2023-03-20T12:15:55.926Z,98165.44
2023-03-20T12:17:18.717Z,98163.66
2023-03-20T12:18:36.121Z,98156.53
2023-03-20T12:19:40.797Z,98161.09
2023-03-20T12:21:07.219Z,98158.34
2023-03-20T12:22:24.332Z,98156.13
2023-03-20T12:23:51.716Z,98162.81
2023-03-20T12:25:22.521Z,98160.03
2023-03-20T12:26:31.568Z,98166.47
2023-03-20T12:27:40.384Z,98151.34
2023-03-20T12:29:01.889Z,98158.19
2023-03-20T12:30:18.446Z,98154.16
2023-03-20T12:31:46.270Z,98145.53
2023-03-20T12:33:12.551Z,98153.72
2023-03-20T12:34:22.424Z,98151.22
2023-03-20T12:35:32.557Z,98144.25
2023-03-20T12:36:42.601Z,98152.94
2023-03-20T12:37:45.842Z,98144.25
2023-03-20T12:38:48.801Z,98148.31
2023-03-20T12:39:56.194Z,98158.50
2023-03-20T12:41:43.357Z,98148.91
2023-03-20T12:43:15.872Z,98147.47
2023-03-20T12:44:36.538Z,98153.22
2023-03-20T12:45:44.187Z,98145.28
2023-03-20T12:46:59.334Z,98143.09
2023-03-20T12:48:13.050Z,98143.50
2023-03-20T12:49:46.803Z,98137.09
2023-03-20T12:51:36.627Z,98149.66
2023-03-20T12:52:57.430Z,98137.34
2023-03-20T12:54:33.834Z,98142.25
2023-03-20T12:55:42.470Z,98135.91
2023-03-20T12:57:04.096Z,98130.00
2023-03-20T12:58:48.887Z,98139.75
2023-03-20T13:00:10.642Z,98140.75
2023-03-20T13:01:23.378Z,98125.25
2023-03-20T13:02:35.811Z,98131.31
2023-03-20T13:03:53.126Z,98128.25
2023-03-20T13:05:08.416Z,98129.00
2023-03-20T13:06:13.793Z,98127.13
2023-03-20T13:07:22.244Z,98127.88
2023-03-20T13:08:57.084Z,98124.81
2023-03-20T13:10:12.893Z,98117.16
2023-03-20T13:11:37.196Z,98128.19
2023-03-20T13:12:49.737Z,98117.81
2023-03-20T13:14:02.520Z,98121.75
2023-03-20T13:15:34.515Z,98113.69
2023-03-20T13:17:00.237Z,98113.56
2023-03-20T13:18:26.869Z,98118.22
2023-03-20T13:20:17.544Z,98112.63
2023-03-20T13:21:33.791Z,98111.09
2023-03-20T13:23:01.161Z,98115.00
2023-03-20T13:24:16.107Z,98112.25